Mount Saint Francis, Indiana
Current Conditions -  °F | °C
As of 9:56 PM on Saturday 20 Dec 2014 (Local Time) from KSDF Reporting Station
Overcast Overcast  
Wind Chill: 31°   Ceiling: 25000
Heat Index: 31°   Visibility: 7mi
Dew Point: 25°   Wind: 3mph
Humidity: 79%   Direction: 10°N
Pressure: 30.3"   Gusts: NA
Location:  38.32°N, 85.91°W
Report Text: KSDF 210256Z 01003KT 7SM SCT120 OVC250 M01/M04 A3030 RMK AO2 SLP265 T10061039 51005
Loading
Personal Weather Stations






























Interactive Weather Map New forecast layout! Learn more

10-Day Weather Forecast

Advertisements
Track Severe Weather on mobile